createdAt,value
2022-12-26T00:01:38.611Z,101046.13
2022-12-26T00:06:41.811Z,101054.03
2022-12-26T00:11:45.127Z,101048.94
2022-12-26T00:16:50.340Z,101044.59
2022-12-26T00:21:55.957Z,101069.28
2022-12-26T00:26:58.975Z,101077.16
2022-12-26T00:32:03.442Z,101076.06
2022-12-26T00:37:06.538Z,101073.66
2022-12-26T00:42:09.939Z,101072.75
2022-12-26T00:47:14.392Z,101076.19
2022-12-26T00:52:17.436Z,101074.53
2022-12-26T00:57:20.461Z,101086.81
2022-12-26T01:02:41.035Z,101072.75
2022-12-26T01:08:21.492Z,101061.38
2022-12-26T01:13:08.700Z,101072.91
2022-12-26T01:18:13.218Z,101080.91
2022-12-26T01:23:16.799Z,101063.28
2022-12-26T01:28:19.975Z,101054.47
2022-12-26T01:33:24.491Z,101073.78
2022-12-26T01:38:27.609Z,101065.72
2022-12-26T01:43:52.656Z,101064.41
2022-12-26T01:48:59.629Z,101078.97
2022-12-26T01:54:41.253Z,101077.41
2022-12-26T01:59:31.634Z,101078.53
2022-12-26T02:05:10.488Z,101069.16
2022-12-26T02:10:18.776Z,101070.81
2022-12-26T02:15:21.861Z,101071.41
2022-12-26T02:20:34.527Z,101075.50
2022-12-26T02:26:02.924Z,101070.59
2022-12-26T02:31:10.873Z,101066.41
2022-12-26T02:36:38.503Z,101085.94
2022-12-26T02:41:53.236Z,101088.09
2022-12-26T02:47:06.665Z,101079.00
2022-12-26T02:52:37.381Z,101075.63
2022-12-26T02:58:04.993Z,101070.44
2022-12-26T03:03:33.249Z,101088.88
2022-12-26T03:08:58.495Z,101087.06
2022-12-26T03:14:11.643Z,101087.31
2022-12-26T03:19:16.618Z,101077.19
2022-12-26T03:24:19.976Z,101070.38
2022-12-26T03:29:44.456Z,101084.66
2022-12-26T03:34:49.354Z,101077.25
2022-12-26T03:40:20.711Z,101077.69
2022-12-26T03:45:48.865Z,101069.47
2022-12-26T03:51:18.779Z,101071.88
2022-12-26T03:56:49.008Z,101086.56
2022-12-26T04:02:11.577Z,101087.25
2022-12-26T04:07:56.198Z,101074.00
2022-12-26T04:13:27.844Z,101096.59
2022-12-26T04:19:01.038Z,101095.75
2022-12-26T04:24:29.731Z,101106.94
2022-12-26T04:29:51.937Z,101108.66
2022-12-26T04:35:24.542Z,101105.81
2022-12-26T04:40:50.542Z,101094.22
2022-12-26T04:45:54.386Z,101086.28
2022-12-26T04:50:57.814Z,101091.03
2022-12-26T04:56:02.290Z,101081.38
2022-12-26T05:01:19.627Z,101084.91
2022-12-26T05:06:40.361Z,101078.69
2022-12-26T05:11:47.286Z,101079.50
2022-12-26T05:17:07.980Z,101070.31
2022-12-26T05:22:30.753Z,101076.69
2022-12-26T05:27:55.895Z,101090.06
2022-12-26T05:33:16.376Z,101107.22
2022-12-26T05:38:19.531Z,101099.88
2022-12-26T05:43:24.201Z,101087.44
2022-12-26T05:48:27.185Z,101084.75
2022-12-26T05:53:31.140Z,101089.84
2022-12-26T05:58:35.815Z,101085.84
2022-12-26T06:03:39.964Z,101080.41
2022-12-26T06:08:43.846Z,101077.03
2022-12-26T06:13:48.164Z,101089.22
2022-12-26T06:18:51.216Z,101080.91
2022-12-26T06:23:54.259Z,101080.44
2022-12-26T06:28:58.634Z,101082.78
2022-12-26T06:34:02.614Z,101068.53
2022-12-26T06:39:05.712Z,101088.59
2022-12-26T06:44:17.723Z,101080.53
2022-12-26T06:49:21.329Z,101091.88
2022-12-26T06:54:24.389Z,101092.06
2022-12-26T06:59:29.099Z,101091.22
2022-12-26T07:04:32.388Z,101102.84
2022-12-26T07:09:35.453Z,101103.47
2022-12-26T07:14:39.935Z,101103.53
2022-12-26T07:19:43.023Z,101109.84
2022-12-26T07:24:46.061Z,101111.66
2022-12-26T07:29:50.617Z,101113.75
2022-12-26T07:34:54.952Z,101122.25
2022-12-26T07:40:00.616Z,101116.75
2022-12-26T07:45:05.432Z,101124.09
2022-12-26T07:50:09.498Z,101134.28
2022-12-26T07:55:12.607Z,101116.06
2022-12-26T08:00:19.069Z,101119.06
2022-12-26T08:05:22.198Z,101120.13
2022-12-26T08:10:25.208Z,101115.53
2022-12-26T08:15:29.577Z,101128.84
2022-12-26T08:20:33.101Z,101134.41
2022-12-26T08:25:36.098Z,101140.00
2022-12-26T08:30:42.320Z,101134.44
2022-12-26T08:35:45.513Z,101142.81
2022-12-26T08:40:56.179Z,101151.97
2022-12-26T08:46:02.040Z,101154.88
2022-12-26T08:51:08.652Z,101152.94
2022-12-26T08:56:14.813Z,101151.94
2022-12-26T09:01:21.137Z,101162.66
2022-12-26T09:06:27.559Z,101175.81
2022-12-26T09:11:31.183Z,101184.38
2022-12-26T09:16:49.377Z,101211.03
2022-12-26T09:22:14.170Z,101242.16
2022-12-26T09:27:17.240Z,101265.13
2022-12-26T09:32:21.820Z,101273.69
2022-12-26T09:37:24.861Z,101289.88
2022-12-26T09:42:39.686Z,101294.13
2022-12-26T09:47:53.541Z,101316.97
2022-12-26T09:52:59.758Z,101315.34
2022-12-26T09:58:09.700Z,101325.91
2022-12-26T10:03:14.181Z,101344.63
2022-12-26T10:08:28.242Z,101382.44
2022-12-26T10:13:40.035Z,101398.56
2022-12-26T10:18:59.634Z,101391.56
2022-12-26T10:24:06.017Z,101413.75
2022-12-26T10:29:19.475Z,101419.50
2022-12-26T10:34:29.408Z,101418.56
2022-12-26T10:39:41.150Z,101423.69
2022-12-26T10:44:44.890Z,101446.13
2022-12-26T10:49:49.849Z,101442.13
2022-12-26T10:55:29.003Z,101460.81
2022-12-26T11:00:22.729Z,101468.50
2022-12-26T11:05:48.833Z,101474.03
2022-12-26T11:11:08.647Z,101471.22
2022-12-26T11:16:11.985Z,101480.22
2022-12-26T11:21:24.002Z,101498.09
2022-12-26T11:26:30.008Z,101503.50
2022-12-26T11:31:33.333Z,101490.34
2022-12-26T11:36:41.641Z,101507.47
2022-12-26T11:41:49.096Z,101519.19
2022-12-26T11:46:55.769Z,101531.47
2022-12-26T11:52:04.603Z,101528.38
2022-12-26T11:57:19.369Z,101537.47
2022-12-26T12:02:31.189Z,101527.56
2022-12-26T12:08:00.450Z,101532.25
2022-12-26T12:13:11.544Z,101531.22
2022-12-26T12:18:21.460Z,101528.91
2022-12-26T12:24:01.930Z,101538.34
2022-12-26T12:29:22.514Z,101550.66
2022-12-26T12:34:43.087Z,101570.72
2022-12-26T12:39:56.259Z,101561.31
2022-12-26T12:45:20.613Z,101575.44
2022-12-26T12:50:33.649Z,101567.25
2022-12-26T12:55:48.160Z,101576.03
2022-12-26T13:00:56.406Z,101587.13
2022-12-26T13:06:06.411Z,101583.41
2022-12-26T13:11:21.449Z,101583.63
2022-12-26T13:16:28.665Z,101594.56
2022-12-26T13:21:37.006Z,101596.69
2022-12-26T13:26:44.932Z,101601.91
2022-12-26T13:31:48.249Z,101611.03
2022-12-26T13:36:54.786Z,101619.50
2022-12-26T13:42:20.138Z,101632.44
2022-12-26T13:47:35.699Z,101617.47
2022-12-26T13:52:41.409Z,101636.06
2022-12-26T13:57:47.473Z,101637.03
2022-12-26T14:03:27.244Z,101635.47
2022-12-26T14:08:38.849Z,101634.44
2022-12-26T14:14:06.701Z,101650.00
2022-12-26T14:19:28.937Z,101652.72
2022-12-26T14:24:42.967Z,101670.03
2022-12-26T14:29:58.305Z,101682.47
2022-12-26T14:35:11.767Z,101680.00
2022-12-26T14:40:26.940Z,101697.56
2022-12-26T14:45:47.019Z,101700.53
2022-12-26T14:50:52.060Z,101709.84
2022-12-26T14:55:57.681Z,101712.84
2022-12-26T15:01:34.215Z,101728.16
2022-12-26T15:07:03.819Z,101738.91
2022-12-26T15:12:43.434Z,101744.00
2022-12-26T15:17:57.596Z,101743.91
2022-12-26T15:23:30.540Z,101752.31
2022-12-26T15:28:52.709Z,101753.44
2022-12-26T15:34:03.815Z,101760.38
2022-12-26T15:39:20.832Z,101756.75
2022-12-26T15:44:33.416Z,101774.06
2022-12-26T15:49:59.217Z,101786.06
2022-12-26T15:55:18.896Z,101788.88
2022-12-26T16:00:24.040Z,101793.38
2022-12-26T16:05:35.825Z,101812.94
2022-12-26T16:10:41.312Z,101798.28
2022-12-26T16:15:47.154Z,101814.13
2022-12-26T16:21:10.762Z,101816.25
2022-12-26T16:26:23.878Z,101816.97
2022-12-26T16:31:31.108Z,101825.19
2022-12-26T16:36:36.607Z,101829.91
2022-12-26T16:41:58.980Z,101815.41
2022-12-26T16:47:04.675Z,101827.13
2022-12-26T16:52:08.323Z,101837.44
2022-12-26T16:57:15.961Z,101841.22
2022-12-26T17:02:25.148Z,101829.53
2022-12-26T17:07:29.175Z,101844.78
2022-12-26T17:12:36.573Z,101858.41
2022-12-26T17:17:40.718Z,101857.94
2022-12-26T17:22:43.780Z,101870.53
2022-12-26T17:27:49.701Z,101872.25
2022-12-26T17:32:52.857Z,101884.34
2022-12-26T17:38:02.376Z,101884.63
2022-12-26T17:43:23.538Z,101876.72
2022-12-26T17:48:26.733Z,101891.66
2022-12-26T17:53:32.415Z,101890.47
2022-12-26T17:58:36.915Z,101883.63
2022-12-26T18:03:40.163Z,101901.66
2022-12-26T18:08:43.285Z,101902.19
2022-12-26T18:13:47.707Z,101904.78
2022-12-26T18:18:50.713Z,101919.56
2022-12-26T18:23:53.842Z,101926.34
2022-12-26T18:28:58.825Z,101925.81
2022-12-26T18:34:04.297Z,101928.16
2022-12-26T18:39:07.515Z,101943.09
2022-12-26T18:44:12.123Z,101949.19
2022-12-26T18:49:17.174Z,101947.78
2022-12-26T18:54:20.186Z,101965.03
2022-12-26T18:59:26.666Z,101950.34
2022-12-26T19:04:29.710Z,101975.41
2022-12-26T19:09:33.142Z,101986.84
2022-12-26T19:14:37.735Z,101985.16
2022-12-26T19:19:41.104Z,101981.66
2022-12-26T19:24:44.279Z,101989.31
2022-12-26T19:29:49.033Z,102004.13
2022-12-26T19:34:53.738Z,102007.00
2022-12-26T19:39:58.143Z,102009.72
2022-12-26T19:45:02.811Z,102024.13
2022-12-26T19:50:08.108Z,102023.19
2022-12-26T19:55:13.116Z,102011.66
2022-12-26T20:00:17.936Z,102016.69
2022-12-26T20:05:20.978Z,102006.84
2022-12-26T20:10:23.999Z,102011.78
2022-12-26T20:15:28.521Z,102009.69
2022-12-26T20:20:31.501Z,102021.78
2022-12-26T20:25:34.581Z,102014.66
2022-12-26T20:30:39.874Z,102017.47
2022-12-26T20:35:42.988Z,102031.88
2022-12-26T20:40:50.074Z,102017.34
2022-12-26T20:45:55.592Z,102025.28
2022-12-26T20:50:59.573Z,102039.78
2022-12-26T20:56:02.927Z,102039.94
2022-12-26T21:01:09.700Z,102045.13
2022-12-26T21:06:14.606Z,102057.97
2022-12-26T21:11:20.454Z,102062.25
2022-12-26T21:16:27.346Z,102072.50
2022-12-26T21:21:33.085Z,102070.69
2022-12-26T21:26:37.774Z,102088.72
2022-12-26T21:31:43.261Z,102084.19
2022-12-26T21:37:07.407Z,102075.75
2022-12-26T21:42:16.318Z,102077.94
2022-12-26T21:47:21.621Z,102088.97
2022-12-26T21:52:27.002Z,102093.53
2022-12-26T21:57:30.672Z,102095.69
2022-12-26T22:02:55.590Z,102108.19
2022-12-26T22:08:00.841Z,102111.53
2022-12-26T22:13:04.074Z,102116.09
2022-12-26T22:18:08.883Z,102123.75
2022-12-26T22:23:11.958Z,102129.59
2022-12-26T22:28:18.830Z,102146.72
2022-12-26T22:33:31.286Z,102146.72
2022-12-26T22:38:34.614Z,102142.66
2022-12-26T22:43:38.434Z,102148.75
2022-12-26T22:48:42.966Z,102167.22
2022-12-26T22:53:46.059Z,102168.88
2022-12-26T22:58:49.777Z,102174.06
2022-12-26T23:03:54.423Z,102176.41
2022-12-26T23:08:59.877Z,102176.13
2022-12-26T23:14:04.913Z,102191.41
2022-12-26T23:19:32.708Z,102188.69
2022-12-26T23:24:35.805Z,102194.47
2022-12-26T23:29:56.588Z,102191.75
2022-12-26T23:35:01.293Z,102190.22
2022-12-26T23:40:05.024Z,102199.56
2022-12-26T23:45:09.181Z,102202.16
2022-12-26T23:50:15.499Z,102197.72
2022-12-26T23:55:19.206Z,102190.72
